Time;durP1;ratioP1;P1;durP2;ratioP2;P2;SDS_P1;SDS_P2;PMS_P1;PMS_P2;Temp;Humidity;BMP_temperature;BMP_pressure;BME280_temperature;BME280_humidity;BME280_pressure;Samples;Min_cycle;Max_cycle;Signal;HPM_P1;HPM_P2
2022/06/12 00:00:30;;;;;;;9.02;5.18;;;20.00;99.90;;;;;;4897392;29;20184;-84
2022/06/12 00:03:17;;;;;;;7.55;5.00;;;20.00;99.90;;;;;;4896284;29;20067;-82
2022/06/12 00:06:04;;;;;;;10.60;5.72;;;19.90;99.90;;;;;;4896646;29;20417;-84
2022/06/12 00:08:50;;;;;;;7.28;5.25;;;19.90;99.90;;;;;;4896555;29;20051;-84
2022/06/12 00:11:41;;;;;;;8.57;5.57;;;19.90;99.90;;;;;;4888562;29;20045;-85
2022/06/12 00:14:27;;;;;;;6.10;4.55;;;19.90;99.90;;;;;;4878724;29;20456;-85
2022/06/12 00:17:13;;;;;;;7.18;5.47;;;19.90;99.90;;;;;;4879996;29;20043;-83
2022/06/12 00:19:59;;;;;;;9.27;4.55;;;19.90;99.90;;;;;;4878527;29;20056;-76
2022/06/12 00:22:46;;;;;;;23.02;14.38;;;19.90;99.90;;;;;;4878372;29;20056;-85
2022/06/12 00:25:35;;;;;;;8.70;6.00;;;19.90;99.90;;;;;;4877627;29;20189;-89
2022/06/12 00:28:27;;;;;;;7.55;5.05;;;19.80;99.90;;;;;;4879269;29;20052;-85
2022/06/12 00:31:34;;;;;;;8.00;4.00;;;19.80;99.90;;;;;;4878451;29;20181;-87
2022/06/12 00:34:49;;;;;;;7.18;4.53;;;19.80;99.90;;;;;;4877524;29;20520;-85
2022/06/12 00:37:51;;;;;;;7.18;4.80;;;19.80;99.90;;;;;;4877968;29;20515;-86
2022/06/12 00:41:24;;;;;;;6.18;4.38;;;19.90;99.90;;;;;;4877718;29;20059;-87
2022/06/12 00:44:43;;;;;;;7.90;4.35;;;19.80;99.90;;;;;;4877183;29;20067;-87
2022/06/12 00:47:57;;;;;;;6.53;4.50;;;19.90;99.90;;;;;;4883123;29;20146;-89
2022/06/12 00:55:48;;;;;;;6.72;4.30;;;19.80;99.90;;;;;;4896958;29;20051;-83
2022/06/12 00:58:40;;;;;;;7.65;4.30;;;19.80;99.90;;;;;;4896685;29;20058;-78
2022/06/12 01:01:40;;;;;;;7.13;4.35;;;19.80;99.90;;;;;;4895670;29;20050;-80
2022/06/12 01:07:41;;;;;;;7.80;4.63;;;19.70;99.90;;;;;;4896222;29;20193;-81
2022/06/12 01:10:29;;;;;;;6.72;4.07;;;19.70;99.90;;;;;;4896136;29;20543;-78
2022/06/12 01:13:25;;;;;;;7.18;4.40;;;19.80;99.90;;;;;;4896217;29;20051;-77
2022/06/12 01:16:19;;;;;;;7.43;4.57;;;19.70;99.90;;;;;;4896376;29;20079;-79
2022/06/12 01:19:08;;;;;;;6.47;4.32;;;19.80;99.90;;;;;;4896546;29;20089;-78
2022/06/12 01:22:11;;;;;;;6.63;4.00;;;19.80;99.90;;;;;;4895875;29;20056;-77
2022/06/12 01:25:03;;;;;;;6.88;4.50;;;19.80;99.90;;;;;;4896475;29;20152;-78
2022/06/12 01:28:13;;;;;;;6.75;4.43;;;19.80;99.90;;;;;;4896586;29;20051;-77
2022/06/12 01:31:06;;;;;;;6.13;4.63;;;19.90;99.90;;;;;;4896932;29;20177;-77
2022/06/12 01:34:01;;;;;;;7.85;4.20;;;19.80;99.90;;;;;;4896427;29;20180;-77
2022/06/12 01:37:21;;;;;;;6.28;4.35;;;19.80;99.90;;;;;;4897566;29;20495;-77
2022/06/12 01:40:22;;;;;;;5.95;4.10;;;19.80;99.90;;;;;;4899826;29;20059;-78
2022/06/12 01:43:14;;;;;;;6.47;4.13;;;19.90;99.90;;;;;;4899211;29;20056;-78
2022/06/12 01:46:18;;;;;;;7.40;4.40;;;19.90;99.90;;;;;;4862802;29;20068;-80
2022/06/12 01:49:45;;;;;;;6.05;4.18;;;19.90;99.90;;;;;;4848339;29;20410;-79
2022/06/12 01:52:58;;;;;;;5.65;3.80;;;19.90;99.90;;;;;;4843673;29;20078;-80
2022/06/12 01:55:50;;;;;;;5.63;3.78;;;19.90;99.90;;;;;;4844400;29;20053;-79
2022/06/12 01:59:11;;;;;;;6.50;4.18;;;19.80;99.90;;;;;;4843747;29;20050;-79
2022/06/12 02:01:57;;;;;;;8.77;4.18;;;19.80;99.90;;;;;;4843763;29;20175;-78
2022/06/12 02:05:15;;;;;;;6.07;3.88;;;19.80;99.90;;;;;;4843452;29;20466;-79
2022/06/12 02:08:20;;;;;;;7.15;4.00;;;19.70;99.90;;;;;;4842659;29;20142;-79
2022/06/12 02:14:24;;;;;;;5.30;3.67;;;19.70;99.90;;;;;;4843269;29;20056;-79
2022/06/12 02:17:17;;;;;;;7.72;4.13;;;19.80;99.90;;;;;;4843492;29;20207;-79
2022/06/12 02:20:10;;;;;;;4.95;3.72;;;19.80;99.90;;;;;;4843469;29;20069;-80
2022/06/12 02:22:57;;;;;;;6.38;4.00;;;19.70;99.90;;;;;;4843264;29;20065;-79
2022/06/12 02:25:46;;;;;;;6.15;3.95;;;19.70;99.90;;;;;;4842604;29;20643;-78
2022/06/12 02:28:41;;;;;;;8.23;4.68;;;19.70;99.90;;;;;;4843781;29;20065;-79
2022/06/12 02:31:41;;;;;;;7.38;4.72;;;19.70;99.90;;;;;;4843398;29;20182;-79
2022/06/12 02:34:33;;;;;;;7.40;4.53;;;19.70;99.90;;;;;;4842148;29;20065;-79
2022/06/12 02:37:47;;;;;;;5.70;3.97;;;19.70;99.90;;;;;;4842243;29;20060;-78
2022/06/12 02:40:38;;;;;;;7.72;4.13;;;19.70;99.90;;;;;;4843292;29;20142;-79
2022/06/12 02:43:29;;;;;;;8.15;4.57;;;19.70;99.90;;;;;;4843159;29;20044;-78
2022/06/12 02:46:17;;;;;;;;;;;19.70;99.90;;;;;;4861816;29;20066;-78
2022/06/12 02:49:03;;;;;;;6.10;3.88;;;19.70;99.90;;;;;;4885717;29;19930;-79
2022/06/12 02:52:11;;;;;;;6.13;3.80;;;19.80;99.90;;;;;;4898880;29;20132;-81
2022/06/12 02:55:31;;;;;;;6.63;4.47;;;19.80;99.90;;;;;;4897366;29;20409;-81
2022/06/12 02:58:25;;;;;;;7.93;4.35;;;19.70;99.90;;;;;;4898407;29;20128;-80
2022/06/12 03:01:14;;;;;;;10.30;4.55;;;19.70;99.90;;;;;;4898575;29;20628;-78
2022/06/12 03:04:25;;;;;;;9.25;5.18;;;19.80;99.90;;;;;;4898182;29;20055;-79
2022/06/12 03:07:11;;;;;;;8.43;4.75;;;19.80;99.90;;;;;;4898039;29;20060;-81
2022/06/12 03:10:03;;;;;;;8.07;4.60;;;19.80;99.90;;;;;;4897445;29;20051;-80
2022/06/12 03:12:50;;;;;;;6.68;4.57;;;19.80;99.90;;;;;;4897379;29;20100;-78
2022/06/12 03:15:43;;;;;;;6.38;3.97;;;19.80;99.90;;;;;;4897517;29;20063;-79
2022/06/12 03:18:33;;;;;;;5.85;3.90;;;19.80;99.90;;;;;;4896720;29;20107;-79
2022/06/12 03:21:33;;;;;;;6.07;4.47;;;19.80;99.90;;;;;;4898291;29;20048;-79
2022/06/12 03:24:30;;;;;;;9.68;4.70;;;19.90;99.90;;;;;;4896761;29;20059;-78
2022/06/12 03:27:32;;;;;;;6.82;4.85;;;19.90;99.90;;;;;;4898162;29;20048;-79
2022/06/12 03:30:47;;;;;;;5.70;3.88;;;19.90;99.90;;;;;;4898301;29;20055;-79
2022/06/12 03:33:55;;;;;;;5.82;4.10;;;19.90;99.90;;;;;;4896485;29;20177;-79
2022/06/12 03:37:04;;;;;;;7.47;3.90;;;19.90;99.90;;;;;;4897622;29;20047;-78
2022/06/12 03:40:02;;;;;;;6.63;4.28;;;19.80;99.90;;;;;;4897668;29;20176;-80
2022/06/12 03:42:56;;;;;;;6.35;4.30;;;19.90;99.90;;;;;;4896699;29;20512;-78
2022/06/12 03:46:11;;;;;;;7.28;4.47;;;19.90;99.90;;;;;;4897640;29;20594;-80
2022/06/12 03:49:22;;;;;;;6.05;4.05;;;19.90;99.90;;;;;;4882305;29;20536;-79
2022/06/12 03:52:15;;;;;;;10.83;6.40;;;19.80;99.90;;;;;;4879186;29;20056;-79
2022/06/12 03:55:10;;;;;;;5.88;4.28;;;19.90;99.90;;;;;;4878275;29;20072;-79
2022/06/12 03:57:57;;;;;;;7.53;4.57;;;19.90;99.90;;;;;;4877663;29;20142;-79
2022/06/12 04:00:46;;;;;;;8.07;4.35;;;19.90;99.90;;;;;;4878225;29;20061;-78
2022/06/12 04:03:40;;;;;;;10.02;4.78;;;19.90;99.90;;;;;;4878781;29;20056;-79
2022/06/12 04:06:29;;;;;;;6.85;4.32;;;19.90;99.90;;;;;;4878348;29;20161;-78
2022/06/12 04:09:23;;;;;;;6.60;4.10;;;19.90;99.90;;;;;;4878465;29;20557;-78
2022/06/12 04:12:16;;;;;;;11.02;4.53;;;19.90;99.90;;;;;;4877604;29;20101;-79
2022/06/12 04:15:29;;;;;;;13.48;5.13;;;19.90;99.90;;;;;;4878257;29;20060;-79
2022/06/12 04:18:15;;;;;;;9.45;4.72;;;20.00;99.90;;;;;;4878259;29;20044;-78
2022/06/12 04:21:04;;;;;;;7.82;4.82;;;20.00;99.90;;;;;;4877503;29;20064;-78
2022/06/12 04:23:59;;;;;;;12.18;4.60;;;20.00;99.90;;;;;;4877765;29;20060;-78
2022/06/12 04:26:59;;;;;;;13.05;4.75;;;20.00;99.90;;;;;;4878602;29;20071;-78
2022/06/12 04:29:50;;;;;;;8.83;5.17;;;20.00;99.90;;;;;;4877942;29;20092;-78
2022/06/12 04:32:36;;;;;;;7.20;3.92;;;20.00;99.90;;;;;;4877744;29;20283;-77
2022/06/12 04:35:22;;;;;;;10.07;4.95;;;20.10;99.90;;;;;;4877993;29;20063;-77
2022/06/12 04:38:07;;;;;;;11.55;4.82;;;20.20;99.90;;;;;;4877152;29;20056;-78
2022/06/12 04:40:57;;;;;;;9.90;4.47;;;20.10;99.90;;;;;;4878091;29;20056;-77
2022/06/12 04:43:43;;;;;;;7.82;3.92;;;20.20;99.90;;;;;;4877781;29;20060;-77
2022/06/12 04:46:30;;;;;;;8.57;4.95;;;20.20;99.90;;;;;;4877212;29;20113;-78
2022/06/12 04:49:20;;;;;;;8.18;4.70;;;20.20;99.90;;;;;;4888288;29;20533;-77
2022/06/12 04:52:09;;;;;;;7.65;4.43;;;20.20;99.90;;;;;;4897001;29;20405;-79
2022/06/12 04:54:55;;;;;;;10.10;5.07;;;20.20;99.90;;;;;;4895570;29;20523;-79
2022/06/12 04:57:41;;;;;;;10.88;4.85;;;20.30;99.90;;;;;;4896378;29;20048;-80
2022/06/12 05:00:28;;;;;;;12.35;4.88;;;20.30;99.90;;;;;;4895603;29;20134;-79
2022/06/12 05:03:14;;;;;;;7.97;4.57;;;20.30;99.90;;;;;;4896585;29;20155;-79
2022/06/12 05:06:00;;;;;;;6.55;4.45;;;20.30;99.90;;;;;;4896336;29;20055;-79
2022/06/12 05:08:47;;;;;;;10.55;5.38;;;20.30;99.90;;;;;;4896535;29;20404;-78
2022/06/12 05:11:34;;;;;;;8.63;4.65;;;20.30;99.90;;;;;;4897342;29;20048;-78
2022/06/12 05:14:20;;;;;;;8.45;4.80;;;20.30;99.90;;;;;;4900339;29;20060;-79
2022/06/12 05:17:10;;;;;;;7.57;5.00;;;20.30;99.90;;;;;;4899228;29;20051;-79
2022/06/12 05:19:56;;;;;;;;;;;20.30;99.90;;;;;;4900597;29;20063;-78
2022/06/12 05:22:42;;;;;;;8.57;4.45;;;20.30;99.90;;;;;;4900391;29;19929;-79
2022/06/12 05:25:27;;;;;;;7.20;4.40;;;20.30;99.90;;;;;;4899302;29;20055;-77
2022/06/12 05:28:15;;;;;;;7.65;5.30;;;20.30;99.90;;;;;;4899491;29;20048;-77
2022/06/12 05:31:01;;;;;;;6.10;4.32;;;20.30;99.90;;;;;;4900336;29;20059;-79
2022/06/12 05:33:48;;;;;;;8.00;4.32;;;20.30;99.90;;;;;;4899741;29;20051;-79
2022/06/12 05:36:39;;;;;;;7.15;4.15;;;20.40;99.90;;;;;;4900018;29;20059;-78
2022/06/12 05:39:25;;;;;;;7.25;4.70;;;20.40;99.90;;;;;;4899801;29;20173;-78
2022/06/12 05:42:12;;;;;;;7.38;3.78;;;20.40;99.90;;;;;;4900149;29;20121;-78
2022/06/12 05:44:58;;;;;;;9.93;4.57;;;20.40;99.90;;;;;;4899270;29;20071;-78
2022/06/12 05:48:05;;;;;;;6.57;4.40;;;20.50;99.90;;;;;;4899676;29;20524;-79
2022/06/12 05:50:58;;;;;;;7.00;4.32;;;20.50;99.90;;;;;;4862539;29;20056;-79
2022/06/12 05:53:43;;;;;;;8.43;4.55;;;20.60;99.90;;;;;;4862538;29;20064;-78
2022/06/12 05:56:30;;;;;;;6.05;4.30;;;20.60;99.90;;;;;;4861052;29;20193;-78
2022/06/12 05:59:17;;;;;;;6.03;4.35;;;20.60;99.90;;;;;;4862426;29;20049;-78
2022/06/12 06:02:03;;;;;;;6.80;4.45;;;20.70;99.90;;;;;;4861436;29;20446;-79
2022/06/12 06:04:49;;;;;;;7.85;4.35;;;20.70;99.90;;;;;;4862249;29;20057;-77
2022/06/12 06:07:36;;;;;;;9.07;4.72;;;20.70;99.90;;;;;;4862213;29;20080;-78
2022/06/12 06:10:25;;;;;;;6.18;4.32;;;20.70;99.90;;;;;;4861626;29;20063;-79
2022/06/12 06:13:11;;;;;;;6.70;4.80;;;20.80;99.90;;;;;;4862361;29;20057;-78
2022/06/12 06:15:58;;;;;;;11.48;4.82;;;20.80;99.90;;;;;;4862118;29;20523;-78
2022/06/12 06:18:44;;;;;;;7.15;4.50;;;20.80;99.90;;;;;;4861956;29;20149;-78
2022/06/12 06:21:31;;;;;;;10.07;5.22;;;20.80;99.90;;;;;;4861986;29;20073;-78
2022/06/12 06:24:17;;;;;;;8.55;5.10;;;20.80;99.90;;;;;;4861748;29;20074;-78
2022/06/12 06:27:03;;;;;;;6.50;4.10;;;20.90;99.90;;;;;;4860673;29;20059;-77
2022/06/12 06:29:49;;;;;;;7.93;5.40;;;21.00;99.90;;;;;;4860907;29;20161;-79
2022/06/12 06:32:36;;;;;;;9.25;4.82;;;21.10;99.90;;;;;;4861944;29;20064;-79
2022/06/12 06:35:23;;;;;;;8.82;5.18;;;21.10;99.90;;;;;;4861359;29;20053;-78
2022/06/12 06:38:09;;;;;;;7.35;4.85;;;21.20;99.90;;;;;;4861707;29;20052;-78
2022/06/12 06:40:56;;;;;;;9.75;5.22;;;21.20;99.90;;;;;;4860430;29;20158;-78
2022/06/12 06:46:46;;;;;;;8.07;5.05;;;21.30;99.90;;;;;;4861709;29;20139;-78
2022/06/12 06:49:38;;;;;;;7.93;5.55;;;21.30;99.90;;;;;;4879974;29;20059;-79
2022/06/12 06:52:24;;;;;;;9.85;5.53;;;21.40;99.90;;;;;;4898492;29;20051;-79
2022/06/12 06:55:11;;;;;;;11.65;6.10;;;21.40;99.90;;;;;;4898633;29;20112;-79
2022/06/12 06:57:58;;;;;;;8.40;5.93;;;21.50;99.90;;;;;;4898792;29;20059;-79
2022/06/12 07:00:45;;;;;;;9.93;5.93;;;21.50;99.90;;;;;;4899236;29;20060;-79
2022/06/12 07:03:31;;;;;;;8.60;6.10;;;21.50;99.90;;;;;;4897723;29;20064;-80
2022/06/12 07:06:18;;;;;;;9.00;5.90;;;21.60;99.90;;;;;;4899085;29;20067;-80
2022/06/12 07:09:11;;;;;;;8.55;5.90;;;21.50;99.90;;;;;;4898368;29;20051;-79
2022/06/12 07:11:57;;;;;;;9.68;6.15;;;21.60;99.90;;;;;;4897365;29;20055;-80
2022/06/12 07:14:43;;;;;;;9.00;6.32;;;21.60;99.90;;;;;;4898687;29;20076;-81
2022/06/12 07:17:29;;;;;;;11.50;6.40;;;21.70;99.90;;;;;;4897499;29;20064;-80
2022/06/12 07:20:20;;;;;;;8.63;6.15;;;21.80;99.90;;;;;;4897218;29;20177;-80
2022/06/12 07:23:08;;;;;;;8.20;5.97;;;21.80;99.90;;;;;;4896808;29;20068;-80
2022/06/12 07:26:02;;;;;;;9.32;7.28;;;21.80;99.90;;;;;;4898065;29;20064;-78
2022/06/12 07:28:48;;;;;;;8.95;6.60;;;21.80;99.90;;;;;;4898245;29;20142;-79
2022/06/12 07:31:35;;;;;;;8.95;6.25;;;22.10;99.90;;;;;;4896714;29;20059;-82
2022/06/12 07:34:21;;;;;;;8.90;6.53;;;22.10;99.90;;;;;;4868499;29;20056;-86
2022/06/12 07:37:08;;;;;;;13.75;9.15;;;22.10;99.90;;;;;;4860449;29;20202;-88
2022/06/12 07:39:54;;;;;;;12.93;7.35;;;22.20;99.90;;;;;;4860144;29;20193;-83
2022/06/12 07:42:46;;;;;;;10.05;7.32;;;22.20;99.90;;;;;;4859880;29;20425;-85
2022/06/12 07:45:31;;;;;;;22.17;15.35;;;22.00;99.90;;;;;;4860119;29;20057;-83
2022/06/12 07:48:22;;;;;;;9.95;7.30;;;22.10;99.90;;;;;;4860495;29;20108;-82
2022/06/12 07:51:13;;;;;;;11.25;7.00;;;22.20;99.90;;;;;;4870360;29;20052;-84
2022/06/12 07:53:59;;;;;;;9.88;6.47;;;22.20;99.90;;;;;;4866526;29;20532;-87
2022/06/12 07:56:45;;;;;;;9.68;6.30;;;22.20;99.90;;;;;;4867864;29;20056;-85
2022/06/12 07:59:31;;;;;;;9.45;6.65;;;22.00;99.90;;;;;;4868059;29;20061;-85
2022/06/12 08:02:17;;;;;;;9.15;6.47;;;22.20;99.90;;;;;;4867124;29;20142;-85
2022/06/12 08:05:05;;;;;;;9.50;6.63;;;22.00;99.90;;;;;;4868772;29;20060;-85
2022/06/12 08:07:51;;;;;;;8.25;5.82;;;22.00;99.90;;;;;;4869838;29;20067;-81
2022/06/12 08:10:37;;;;;;;11.25;6.25;;;21.90;99.90;;;;;;4868524;29;20052;-85
2022/06/12 08:13:23;;;;;;;11.32;6.50;;;22.00;99.90;;;;;;4869086;29;20071;-84
2022/06/12 08:16:10;;;;;;;8.80;6.78;;;21.90;99.90;;;;;;4862031;29;20563;-80
2022/06/12 08:18:56;;;;;;;9.43;6.68;;;22.00;99.90;;;;;;4873133;29;20524;-83
2022/06/12 08:21:41;;;;;;;9.30;6.57;;;22.10;99.90;;;;;;4862247;29;20397;-85
2022/06/12 08:24:28;;;;;;;11.57;7.35;;;22.20;99.90;;;;;;4868740;29;20056;-83
2022/06/12 08:27:17;;;;;;;9.95;7.03;;;22.30;99.90;;;;;;4868689;29;20522;-85
2022/06/12 08:30:07;;;;;;;9.27;6.95;;;22.30;99.90;;;;;;4866907;29;20076;-84
2022/06/12 08:32:55;;;;;;;9.75;6.75;;;22.40;99.90;;;;;;4868515;29;20410;-85
2022/06/12 08:35:41;;;;;;;29.88;19.33;;;22.60;99.90;;;;;;4866983;29;20465;-82
2022/06/12 08:38:27;;;;;;;13.35;8.63;;;22.60;99.90;;;;;;4867990;29;20173;-86
2022/06/12 08:41:22;;;;;;;10.43;7.43;;;23.00;99.90;;;;;;4868993;29;20259;-83
2022/06/12 08:44:16;;;;;;;10.60;7.22;;;23.00;99.90;;;;;;4863730;29;20060;-85
2022/06/12 08:47:06;;;;;;;12.05;6.82;;;23.00;99.90;;;;;;4860217;29;20582;-84
2022/06/12 08:50:18;;;;;;;11.18;7.00;;;22.90;99.90;;;;;;4875957;29;20052;-87
2022/06/12 08:53:20;;;;;;;18.10;14.35;;;22.90;99.90;;;;;;4897326;29;20048;-93
2022/06/12 08:56:25;;;;;;;12.27;8.88;;;23.20;99.90;;;;;;4897553;29;20432;-85
2022/06/12 08:59:31;;;;;;;10.65;7.82;;;23.10;99.90;;;;;;4897093;29;20151;-80
2022/06/12 09:02:28;;;;;;;9.25;7.00;;;23.00;99.90;;;;;;4897020;29;20521;-79
2022/06/12 09:05:21;;;;;;;11.00;7.30;;;22.90;99.90;;;;;;4896599;29;20051;-85
2022/06/12 09:08:17;;;;;;;13.38;7.53;;;22.70;99.90;;;;;;4896484;29;20457;-79
2022/06/12 09:11:21;;;;;;;9.25;6.65;;;22.60;99.90;;;;;;4897020;29;20081;-83
2022/06/12 09:14:42;;;;;;;13.70;8.02;;;22.40;99.90;;;;;;4896581;29;20527;-84
2022/06/12 09:17:48;;;;;;;11.52;7.47;;;22.40;99.90;;;;;;4891885;29;20104;-80
2022/06/12 09:20:44;;;;;;;8.77;6.65;;;22.40;99.90;;;;;;4895759;29;20097;-86
2022/06/12 09:23:34;;;;;;;10.32;6.88;;;22.50;99.90;;;;;;4896505;29;20131;-83
2022/06/12 09:26:33;;;;;;;8.47;6.80;;;22.70;99.90;;;;;;4895900;29;20084;-86
2022/06/12 09:29:41;;;;;;;9.82;6.38;;;22.90;99.90;;;;;;4897084;29;20056;-86
2022/06/12 09:32:54;;;;;;;17.80;12.68;;;23.10;99.90;;;;;;4859745;29;20102;-81
2022/06/12 09:35:57;;;;;;;11.23;8.43;;;23.10;99.90;;;;;;4857972;29;20056;-83
2022/06/12 09:39:15;;;;;;;9.10;7.05;;;23.10;99.90;;;;;;4858625;29;20053;-79
2022/06/12 09:42:25;;;;;;;11.68;8.30;;;23.20;99.90;;;;;;4859328;29;20179;-83
2022/06/12 09:45:24;;;;;;;11.13;7.20;;;23.50;99.90;;;;;;4858460;29;20177;-81
2022/06/12 09:48:29;;;;;;;10.70;6.85;;;23.80;99.90;;;;;;4866834;29;20168;-77
2022/06/12 09:51:34;;;;;;;11.45;7.25;;;23.90;99.90;;;;;;4870325;29;20420;-82
2022/06/12 09:54:42;;;;;;;10.38;7.78;;;23.80;99.90;;;;;;4859383;29;20056;-85
2022/06/12 09:57:40;;;;;;;10.85;7.25;;;23.40;99.90;;;;;;4860330;29;20536;-83
2022/06/12 10:00:47;;;;;;;9.90;7.78;;;23.20;99.90;;;;;;4863824;29;20052;-87
2022/06/12 10:03:51;;;;;;;9.05;7.28;;;23.10;99.90;;;;;;4864001;29;20521;-82
2022/06/12 10:06:52;;;;;;;9.65;6.90;;;23.10;99.90;;;;;;4862302;29;20067;-83
2022/06/12 10:09:49;;;;;;;10.90;7.95;;;23.20;99.90;;;;;;4861844;29;20055;-84
2022/06/12 10:12:44;;;;;;;11.63;8.32;;;23.30;99.90;;;;;;4863384;29;20137;-87
2022/06/12 10:15:34;;;;;;;8.95;7.00;;;23.20;99.90;;;;;;4863445;29;20141;-88
2022/06/12 10:18:36;;;;;;;10.00;7.88;;;23.20;99.90;;;;;;4864410;29;20064;-91
2022/06/12 10:21:24;;;;;;;10.18;7.20;;;23.30;99.90;;;;;;4864328;29;20060;-88
2022/06/12 10:24:11;;;;;;;10.82;7.78;;;23.20;99.90;;;;;;4864189;29;20532;-83
2022/06/12 10:27:09;;;;;;;13.70;9.88;;;23.10;99.90;;;;;;4862728;29;20048;-87
2022/06/12 10:29:57;;;;;;;12.80;10.40;;;22.90;99.90;;;;;;4863051;29;20057;-88
2022/06/12 10:32:50;;;;;;;9.63;7.40;;;22.80;99.90;;;;;;4861721;29;20136;-85
2022/06/12 10:35:48;;;;;;;10.02;7.25;;;22.70;99.90;;;;;;4863195;29;20572;-91
2022/06/12 10:38:36;;;;;;;10.45;7.93;;;22.80;99.90;;;;;;4863296;29;20052;-89
2022/06/12 10:41:28;;;;;;;10.88;8.13;;;22.80;99.90;;;;;;4864155;29;20048;-89
2022/06/12 10:44:29;;;;;;;10.02;7.28;;;22.80;99.90;;;;;;4862634;29;20150;-89
2022/06/12 10:47:20;;;;;;;11.90;8.20;;;22.90;99.90;;;;;;4860926;29;20418;-81
2022/06/12 10:50:06;;;;;;;11.40;8.93;;;22.90;99.90;;;;;;4872552;29;20092;-81
2022/06/12 10:53:13;;;;;;;11.95;8.68;;;23.10;99.90;;;;;;4898993;29;20076;-80
2022/06/12 10:56:44;;;;;;;12.10;8.52;;;23.30;99.90;;;;;;4886421;29;20052;-84
2022/06/12 10:59:33;;;;;;;12.32;8.18;;;23.20;99.90;;;;;;4874599;29;20060;-83
2022/06/12 11:02:43;;;;;;;13.10;7.78;;;23.40;99.90;;;;;;4864076;29;20524;-83
2022/06/12 11:05:50;;;;;;;11.00;8.80;;;23.50;99.90;;;;;;4865750;29;20078;-80
2022/06/12 11:08:42;;;;;;;22.25;10.15;;;23.70;99.90;;;;;;4867163;29;20136;-80
2022/06/12 11:11:40;;;;;;;11.07;7.63;;;24.30;99.90;;;;;;4863318;29;20065;-79
2022/06/12 11:14:51;;;;;;;11.80;8.02;;;24.40;99.90;;;;;;4863568;29;20061;-83
2022/06/12 11:18:20;;;;;;;11.80;7.95;;;24.00;99.90;;;;;;4861088;29;20063;-82
2022/06/12 11:21:15;;;;;;;18.23;12.15;;;24.20;99.90;;;;;;4860811;29;20084;-80
2022/06/12 11:24:13;;;;;;;10.60;8.55;;;24.40;99.90;;;;;;4862361;29;20060;-79
2022/06/12 11:27:15;;;;;;;18.35;11.48;;;24.20;99.90;;;;;;4863646;29;20056;-82
2022/06/12 11:30:30;;;;;;;11.98;8.55;;;24.50;99.90;;;;;;4865133;29;20110;-79
2022/06/12 11:33:47;;;;;;;10.95;8.00;;;24.40;99.90;;;;;;4864102;29;20057;-83
2022/06/12 11:37:19;;;;;;;21.88;12.55;;;24.00;99.90;;;;;;4861518;29;20068;-83
2022/06/12 11:44:09;;;;;;;12.32;8.85;;;23.90;99.90;;;;;;4879658;23;20067;-81
2022/06/12 11:47:32;;;;;;;12.68;8.30;;;24.00;99.90;;;;;;4898141;29;20158;-78
2022/06/12 11:54:18;;;;;;;10.38;8.65;;;24.10;99.90;;;;;;4903217;29;20052;-91
2022/06/12 11:57:28;;;;;;;12.60;8.27;;;24.00;99.90;;;;;;4899870;29;20515;-83
2022/06/12 12:00:53;;;;;;;10.30;8.47;;;23.90;99.90;;;;;;4902805;29;20112;-86
2022/06/12 12:04:06;;;;;;;12.82;7.95;;;23.80;99.90;;;;;;4888238;29;20519;-80
2022/06/12 12:07:23;;;;;;;13.63;9.65;;;23.60;99.90;;;;;;4883344;29;20136;-82
2022/06/12 12:10:38;;;;;;;10.75;8.43;;;23.60;99.90;;;;;;4898031;29;20837;-80
2022/06/12 12:13:46;;;;;;;10.88;8.75;;;23.60;99.90;;;;;;4897466;29;20491;-84
2022/06/12 12:16:49;;;;;;;11.70;9.15;;;23.70;99.90;;;;;;4897947;29;20048;-81
2022/06/12 12:19:49;;;;;;;10.95;9.25;;;23.70;99.90;;;;;;4896898;29;20189;-81
2022/06/12 12:22:56;;;;;;;15.38;9.50;;;23.60;99.90;;;;;;4896435;29;20058;-80
2022/06/12 12:26:07;;;;;;;12.85;9.02;;;23.80;99.90;;;;;;4896825;29;20052;-79
2022/06/12 12:28:57;;;;;;;11.70;9.50;;;23.80;99.90;;;;;;4897089;29;20067;-80
2022/06/12 12:31:46;;;;;;;11.45;9.07;;;23.70;99.90;;;;;;4897282;29;20060;-81
2022/06/12 12:34:33;;;;;;;10.85;9.18;;;23.90;99.90;;;;;;4896915;29;20055;-80
2022/06/12 12:43:53;;;;;;;58.58;44.47;;;24.40;99.90;;;;;;4859569;29;20508;-78
2022/06/12 12:46:51;;;;;;;41.83;30.25;;;24.60;99.90;;;;;;4859149;29;20125;-79
2022/06/12 12:49:39;;;;;;;28.40;23.60;;;24.80;99.90;;;;;;4859413;29;20172;-78
2022/06/12 12:52:24;;;;;;;13.40;9.23;;;24.90;99.90;;;;;;4854804;29;20088;-77
2022/06/12 12:55:42;;;;;;;11.20;8.48;;;25.10;99.90;;;;;;4869596;29;20060;-77
2022/06/12 12:58:30;;;;;;;9.55;7.03;;;25.50;99.90;;;;;;4868816;29;20056;-78
2022/06/12 13:01:24;;;;;;;11.27;7.90;;;25.70;99.90;;;;;;4873782;29;20157;-77
2022/06/12 13:04:19;;;;;;;11.07;7.90;;;25.00;99.90;;;;;;4874067;29;20170;-77
2022/06/12 13:07:14;;;;;;;11.65;8.30;;;24.90;99.90;;;;;;4871262;29;20048;-78
2022/06/12 13:10:14;;;;;;;10.20;8.32;;;24.80;99.90;;;;;;4876794;29;20056;-76
2022/06/12 13:13:22;;;;;;;14.98;10.65;;;24.90;99.90;;;;;;4876273;29;20051;-78
2022/06/12 13:16:28;;;;;;;11.35;8.98;;;25.00;99.90;;;;;;4874958;29;20073;-75
2022/06/12 13:19:50;;;;;;;11.57;8.75;;;25.00;99.90;;;;;;4871242;29;20064;-77
2022/06/12 13:22:52;;;;;;;10.35;8.90;;;24.60;99.90;;;;;;4874708;29;20516;-75
2022/06/12 13:25:45;;;;;;;12.68;8.93;;;24.40;99.90;;;;;;4873052;29;20089;-74
2022/06/12 13:28:33;;;;;;;12.18;9.00;;;24.40;99.90;;;;;;4875880;29;20392;-74
2022/06/12 13:31:22;;;;;;;12.05;9.50;;;24.30;99.90;;;;;;4873040;29;20136;-76
2022/06/12 13:34:18;;;;;;;12.05;9.93;;;24.30;99.90;;;;;;4877949;29;20144;-78
2022/06/12 13:37:12;;;;;;;14.10;8.68;;;24.40;99.90;;;;;;4876906;29;20060;-76
2022/06/12 13:40:00;;;;;;;10.38;8.55;;;24.40;99.90;;;;;;4878658;29;20052;-75
2022/06/12 13:42:46;;;;;;;12.02;9.20;;;24.40;99.90;;;;;;4876095;29;20048;-75
2022/06/12 13:45:32;;;;;;;14.18;9.48;;;24.30;99.90;;;;;;4878314;29;20048;-76
2022/06/12 13:48:30;;;;;;;11.52;8.68;;;24.30;99.90;;;;;;4878779;29;20132;-76
2022/06/12 13:51:37;;;;;;;10.88;9.15;;;24.20;99.90;;;;;;4880479;29;20551;-81
2022/06/12 13:54:28;;;;;;;15.27;11.23;;;24.20;99.90;;;;;;4874657;29;20064;-77
2022/06/12 13:57:30;;;;;;;16.27;9.82;;;24.40;99.90;;;;;;4878572;29;20044;-77
2022/06/12 14:00:44;;;;;;;13.48;10.40;;;24.60;99.90;;;;;;4861039;29;20580;-78
2022/06/12 14:04:01;;;;;;;15.35;9.52;;;24.90;99.90;;;;;;4861838;29;20057;-81
2022/06/12 14:06:47;;;;;;;13.90;10.00;;;24.80;99.90;;;;;;4870972;29;20048;-78
2022/06/12 14:09:34;;;;;;;13.05;9.88;;;24.70;99.90;;;;;;4868590;29;20048;-78
2022/06/12 14:12:20;;;;;;;11.50;9.70;;;24.80;99.90;;;;;;4870068;29;20178;-79
2022/06/12 14:15:31;;;;;;;13.35;9.93;;;24.70;99.90;;;;;;4871672;29;20063;-80
2022/06/12 14:18:25;;;;;;;;;;;24.60;99.90;;;;;;4862973;29;20148;-81
2022/06/12 14:21:23;;;;;;;42.63;31.85;;;24.70;99.90;;;;;;4863227;29;19927;-85
2022/06/12 14:24:14;;;;;;;57.25;41.35;;;24.70;99.90;;;;;;4864878;29;20052;-83
2022/06/12 14:27:01;;;;;;;15.55;13.13;;;24.70;99.90;;;;;;4869618;29;20053;-79
2022/06/12 14:29:47;;;;;;;12.00;9.35;;;24.70;99.90;;;;;;4869356;29;20633;-78
2022/06/12 14:32:45;;;;;;;12.02;8.68;;;24.80;99.90;;;;;;4867193;29;20074;-79
2022/06/12 14:35:42;;;;;;;;;;;24.80;99.90;;;;;;4869398;29;20044;-80
2022/06/12 14:38:32;;;;;;;16.38;13.57;;;24.70;99.90;;;;;;4870522;29;19931;-82
2022/06/12 14:41:24;;;;;;;13.02;9.52;;;24.80;99.90;;;;;;4864077;29;20414;-80
2022/06/12 14:44:10;;;;;;;11.63;10.05;;;25.00;99.90;;;;;;4864020;29;20073;-78
2022/06/12 14:47:08;;;;;;;11.25;9.63;;;25.00;99.90;;;;;;4868711;29;20057;-77
2022/06/12 14:49:56;;;;;;;13.02;9.63;;;25.00;99.90;;;;;;4861486;29;20496;-81
2022/06/12 14:52:42;;;;;;;10.80;9.18;;;25.10;99.90;;;;;;4865306;29;20100;-77
2022/06/12 14:55:28;;;;;;;14.13;10.88;;;25.10;99.90;;;;;;4867955;29;20044;-78
2022/06/12 14:58:29;;;;;;;13.88;10.63;;;25.10;99.70;;;;;;4868834;29;20043;-80
2022/06/12 15:01:18;;;;;;;;;;;25.00;99.90;;;;;;4874605;29;20789;-78
2022/06/12 15:04:04;;;;;;;12.52;10.52;;;24.90;99.90;;;;;;4866454;29;20630;-77
2022/06/12 15:06:51;;;;;;;13.82;9.65;;;24.70;99.90;;;;;;4860216;29;20407;-82
2022/06/12 15:09:37;;;;;;;16.60;12.98;;;24.80;99.90;;;;;;4859600;29;20106;-80
2022/06/12 15:12:23;;;;;;;13.68;10.30;;;25.00;99.90;;;;;;4861700;29;20085;-81
2022/06/12 15:15:17;;;;;;;14.85;11.65;;;25.10;99.90;;;;;;4870795;29;20056;-78
2022/06/12 15:18:03;;;;;;;27.38;21.63;;;25.20;99.90;;;;;;4866375;29;20518;-82
2022/06/12 15:20:52;;;;;;;35.38;27.60;;;25.40;99.90;;;;;;4867317;29;20093;-77
2022/06/12 15:23:37;;;;;;;15.48;10.10;;;25.50;99.90;;;;;;4868341;29;20405;-81
2022/06/12 15:29:47;;;;;;;59.67;46.22;;;24.90;99.90;;;;;;4868765;29;20145;-80
2022/06/12 15:32:36;;;;;;;15.45;12.40;;;24.80;99.90;;;;;;4866932;29;20224;-80
2022/06/12 15:35:22;;;;;;;10.95;9.57;;;24.80;99.90;;;;;;4864376;29;20048;-78
2022/06/12 15:38:08;;;;;;;11.70;10.00;;;25.60;99.90;;;;;;4863754;29;20098;-78